Time;durP1;ratioP1;P1;durP2;ratioP2;P2;SDS_P1;SDS_P2;PMS_P1;PMS_P2;Temp;Humidity;BMP_temperature;BMP_pressure;BME280_temperature;BME280_humidity;BME280_pressure;Samples;Min_cycle;Max_cycle;Signal;HPM_P1;HPM_P2
2021/10/28 00:14:14;;;;;;;13.40;7.63;;;;;;;;;;5088971;28;20066;-58
2021/10/28 00:16:42;;;;;;;11.60;7.00;;;;;;;;;;5090811;28;20048;-58
2021/10/28 00:19:09;;;;;;;10.52;6.55;;;;;;;;;;5090494;28;20416;-58
2021/10/28 00:21:37;;;;;;;16.33;7.60;;;;;;;;;;5092603;28;20127;-58
2021/10/28 00:24:05;;;;;;;13.35;8.10;;;;;;;;;;5090423;28;20130;-58
2021/10/28 00:26:33;;;;;;;12.05;7.55;;;;;;;;;;5090575;28;20135;-58
2021/10/28 00:29:03;;;;;;;12.20;7.20;;;;;;;;;;5089348;28;20044;-58
2021/10/28 00:31:31;;;;;;;16.63;7.82;;;;;;;;;;5090514;28;20072;-58
2021/10/28 00:33:58;;;;;;;13.05;7.40;;;;;;;;;;5091715;28;20046;-58
2021/10/28 00:36:24;;;;;;;13.68;7.30;;;;;;;;;;5090977;28;20040;-58
2021/10/28 00:38:52;;;;;;;12.50;6.68;;;;;;;;;;5090316;28;20129;-58
2021/10/28 00:41:19;;;;;;;13.73;7.68;;;;;;;;;;5090254;28;20051;-58
2021/10/28 00:43:47;;;;;;;13.00;7.03;;;;;;;;;;5090578;28;20040;-58
2021/10/28 00:46:18;;;;;;;16.17;8.13;;;;;;;;;;5090321;28;20067;-58
2021/10/28 00:48:46;;;;;;;11.95;7.68;;;;;;;;;;5092332;28;20044;-58
2021/10/28 00:51:12;;;;;;;12.38;6.97;;;;;;;;;;5089996;28;20221;-58
2021/10/28 00:53:39;;;;;;;10.93;6.32;;;;;;;;;;5088628;28;20040;-58
2021/10/28 00:56:06;;;;;;;12.88;7.03;;;;;;;;;;5090395;28;20036;-58
2021/10/28 00:58:34;;;;;;;12.70;6.85;;;;;;;;;;5089888;28;20119;-58
2021/10/28 01:01:01;;;;;;;10.40;6.43;;;;;;;;;;5091224;28;20066;-58
2021/10/28 01:03:28;;;;;;;11.35;6.00;;;;;;;;;;5091444;28;20060;-58
2021/10/28 01:05:54;;;;;;;12.77;6.38;;;;;;;;;;5089710;28;20407;-58
2021/10/28 01:08:21;;;;;;;11.00;7.07;;;;;;;;;;5090306;28;20063;-58
2021/10/28 01:10:48;;;;;;;9.60;6.13;;;;;;;;;;5089704;28;20044;-58
2021/10/28 01:13:15;;;;;;;10.52;6.57;;;;;;;;;;5089935;28;20389;-58
2021/10/28 01:15:42;;;;;;;12.23;6.15;;;;;;;;;;5092476;28;20042;-58
2021/10/28 01:18:09;;;;;;;10.13;6.20;;;;;;;;;;5089768;28;20135;-58
2021/10/28 01:20:37;;;;;;;12.02;6.18;;;;;;;;;;5089717;28;20048;-58
2021/10/28 01:23:03;;;;;;;10.60;6.70;;;;;;;;;;5089838;28;20534;-58
2021/10/28 01:25:30;;;;;;;12.15;6.53;;;;;;;;;;5089325;28;20077;-57
2021/10/28 01:27:56;;;;;;;13.00;6.40;;;;;;;;;;5091726;28;20138;-58
2021/10/28 01:30:23;;;;;;;12.23;7.20;;;;;;;;;;5091212;28;20088;-58
2021/10/28 01:32:49;;;;;;;17.52;7.22;;;;;;;;;;5088966;28;20111;-58
2021/10/28 01:35:15;;;;;;;14.43;7.10;;;;;;;;;;5090012;28;20504;-58
2021/10/28 01:37:43;;;;;;;15.70;7.32;;;;;;;;;;5090418;28;20095;-58
2021/10/28 01:40:10;;;;;;;17.08;7.95;;;;;;;;;;5090757;28;20059;-58
2021/10/28 01:42:38;;;;;;;8.88;5.28;;;;;;;;;;5096287;28;20044;-58
2021/10/28 01:45:05;;;;;;;12.35;6.88;;;;;;;;;;5093797;28;20135;-58
2021/10/28 01:47:32;;;;;;;13.88;8.27;;;;;;;;;;5093871;28;20525;-58
2021/10/28 01:49:58;;;;;;;15.45;8.30;;;;;;;;;;5093924;28;20411;-58
2021/10/28 01:52:24;;;;;;;11.95;7.00;;;;;;;;;;5093987;28;20055;-58
2021/10/28 01:54:51;;;;;;;12.52;6.95;;;;;;;;;;5095791;28;20070;-58
2021/10/28 01:57:23;;;;;;;10.85;6.75;;;;;;;;;;5092572;28;20091;-58
2021/10/28 01:59:50;;;;;;;16.60;7.13;;;;;;;;;;5093812;28;20612;-58
2021/10/28 02:02:16;;;;;;;8.32;5.63;;;;;;;;;;5093703;28;20044;-58
2021/10/28 02:04:45;;;;;;;13.40;7.38;;;;;;;;;;5093632;28;20040;-58
2021/10/28 02:07:13;;;;;;;11.60;6.57;;;;;;;;;;5093578;28;20538;-58
2021/10/28 02:09:40;;;;;;;11.93;7.28;;;;;;;;;;5095470;28;20047;-58
2021/10/28 02:12:07;;;;;;;12.65;7.35;;;;;;;;;;5092034;28;20510;-58
2021/10/28 02:14:33;;;;;;;12.65;6.90;;;;;;;;;;5093393;28;20110;-58
2021/10/28 02:17:00;;;;;;;17.23;6.78;;;;;;;;;;5093493;28;20490;-58
2021/10/28 02:19:26;;;;;;;17.83;7.65;;;;;;;;;;5093335;28;20475;-58
2021/10/28 02:21:52;;;;;;;15.45;7.75;;;;;;;;;;5095278;28;20063;-58
2021/10/28 02:24:19;;;;;;;13.13;7.65;;;;;;;;;;5093421;28;20048;-58
2021/10/28 02:26:45;;;;;;;14.70;7.00;;;;;;;;;;5093146;28;20044;-58
2021/10/28 02:29:11;;;;;;;16.88;7.00;;;;;;;;;;5093023;28;20086;-58
2021/10/28 02:31:43;;;;;;;11.63;7.10;;;;;;;;;;5093243;28;20522;-58
2021/10/28 02:34:10;;;;;;;13.48;6.90;;;;;;;;;;5093144;28;20499;-58
2021/10/28 02:36:36;;;;;;;9.38;6.00;;;;;;;;;;5095084;28;20068;-58
2021/10/28 02:39:02;;;;;;;12.65;7.63;;;;;;;;;;5092712;28;20056;-58
2021/10/28 02:41:29;;;;;;;15.68;7.55;;;;;;;;;;5092843;28;20047;-58
2021/10/28 02:43:56;;;;;;;17.90;7.72;;;;;;;;;;5092943;28;20059;-58
2021/10/28 02:46:23;;;;;;;13.00;7.13;;;;;;;;;;5093038;28;20044;-58
2021/10/28 02:48:49;;;;;;;13.60;7.20;;;;;;;;;;5094901;28;20491;-58
2021/10/28 02:51:15;;;;;;;13.27;7.25;;;;;;;;;;5090918;28;20080;-58
2021/10/28 02:53:42;;;;;;;12.15;7.05;;;;;;;;;;5090706;28;20040;-58
2021/10/28 02:56:08;;;;;;;11.77;7.07;;;;;;;;;;5091444;28;20138;-58
2021/10/28 02:58:34;;;;;;;12.07;7.32;;;;;;;;;;5092533;28;20047;-58
2021/10/28 03:01:01;;;;;;;13.77;7.40;;;;;;;;;;5093770;28;20491;-59
2021/10/28 03:03:27;;;;;;;11.27;6.53;;;;;;;;;;5093752;28;20047;-58
2021/10/28 03:05:53;;;;;;;12.15;6.60;;;;;;;;;;5092319;28;20562;-58
2021/10/28 03:08:19;;;;;;;11.35;7.45;;;;;;;;;;5092152;28;20092;-58
2021/10/28 03:10:46;;;;;;;14.63;7.47;;;;;;;;;;5092399;28;20032;-59
2021/10/28 03:13:16;;;;;;;10.13;6.57;;;;;;;;;;5092278;28;20103;-58
2021/10/28 03:15:42;;;;;;;12.63;7.82;;;;;;;;;;5093951;28;20113;-58
2021/10/28 03:26:31;;;;;;;10.20;6.43;;;;;;;;;;5091384;28;20079;-58
2021/10/28 03:28:57;;;;;;;9.80;6.00;;;;;;;;;;5089998;28;20514;-58
2021/10/28 03:31:24;;;;;;;7.95;5.15;;;;;;;;;;5091347;28;20047;-59
2021/10/28 03:33:51;;;;;;;10.68;5.53;;;;;;;;;;5093937;28;20059;-59
2021/10/28 03:36:37;;;;;;;12.70;6.03;;;;;;;;;;5090973;28;20048;-58
2021/10/28 03:39:22;;;;;;;11.32;5.95;;;;;;;;;;5091875;28;20071;-58
2021/10/28 03:42:28;;;;;;;9.82;5.70;;;;;;;;;;5091846;28;20040;-58
2021/10/28 04:19:51;;;;;;;14.15;8.13;;;;;;;;;;5050202;28;20122;-58
2021/10/28 04:30:17;;;;;;;14.00;8.98;;;;;;;;;;5039006;28;20045;-59
2021/10/28 04:32:43;;;;;;;18.52;7.85;;;;;;;;;;5038820;28;20041;-58
2021/10/28 04:35:10;;;;;;;14.80;8.90;;;;;;;;;;5038566;28;20149;-58
2021/10/28 04:37:37;;;;;;;15.30;8.50;;;;;;;;;;5036372;28;20047;-58
2021/10/28 04:40:04;;;;;;;16.20;9.48;;;;;;;;;;5034111;28;20092;-59
2021/10/28 04:42:30;;;;;;;14.32;8.68;;;;;;;;;;5037732;28;20162;-58
2021/10/28 04:44:56;;;;;;;17.17;8.35;;;;;;;;;;5038692;28;20047;-58
2021/10/28 04:47:23;;;;;;;17.88;9.57;;;;;;;;;;5068526;28;20059;-58
2021/10/28 04:49:49;;;;;;;16.65;10.07;;;;;;;;;;5090575;28;20531;-59
2021/10/28 04:52:15;;;;;;;26.25;12.07;;;;;;;;;;5091700;28;20040;-58
2021/10/28 04:54:42;;;;;;;24.50;12.10;;;;;;;;;;5090182;28;20051;-58
2021/10/28 04:57:09;;;;;;;22.13;11.68;;;;;;;;;;5086775;28;20500;-58
2021/10/28 04:59:35;;;;;;;16.17;9.75;;;;;;;;;;5090063;28;20044;-58
2021/10/28 05:02:01;;;;;;;15.85;10.52;;;;;;;;;;5083940;28;20044;-58
2021/10/28 05:04:28;;;;;;;18.20;11.18;;;;;;;;;;5075460;28;20048;-58
2021/10/28 05:06:54;;;;;;;20.30;10.52;;;;;;;;;;5079302;28;20052;-58
2021/10/28 05:09:28;;;;;;;20.17;10.38;;;;;;;;;;5089697;28;20434;-59
2021/10/28 05:11:54;;;;;;;19.20;10.45;;;;;;;;;;5085486;28;20078;-58
2021/10/28 05:14:21;;;;;;;15.95;9.02;;;;;;;;;;5090711;28;20040;-58
2021/10/28 05:16:50;;;;;;;19.98;9.93;;;;;;;;;;5094214;28;20040;-58
2021/10/28 05:19:17;;;;;;;21.92;10.68;;;;;;;;;;5093768;28;20079;-58
2021/10/28 05:21:43;;;;;;;21.65;11.20;;;;;;;;;;5096551;28;20055;-58
2021/10/28 05:24:09;;;;;;;21.45;11.35;;;;;;;;;;5091763;28;20052;-58
2021/10/28 05:26:36;;;;;;;17.98;10.80;;;;;;;;;;5094346;28;20111;-59
2021/10/28 05:29:02;;;;;;;22.50;11.48;;;;;;;;;;5092099;28;20515;-58
2021/10/28 05:31:28;;;;;;;21.00;10.98;;;;;;;;;;5094445;28;20040;-58
2021/10/28 05:33:55;;;;;;;16.25;9.45;;;;;;;;;;5095545;28;20063;-58
2021/10/28 05:36:21;;;;;;;20.48;10.95;;;;;;;;;;5093252;28;20083;-58
2021/10/28 05:38:47;;;;;;;20.33;10.73;;;;;;;;;;5094213;28;20088;-59
2021/10/28 05:41:14;;;;;;;18.17;11.05;;;;;;;;;;5094045;28;20122;-58
2021/10/28 05:43:40;;;;;;;18.90;10.05;;;;;;;;;;5094024;28;20081;-58
2021/10/28 05:46:06;;;;;;;21.05;11.95;;;;;;;;;;5093535;28;20044;-59
2021/10/28 05:48:33;;;;;;;22.52;12.65;;;;;;;;;;5094955;28;20048;-59
2021/10/28 05:51:00;;;;;;;18.98;11.05;;;;;;;;;;5085342;28;20044;-58
2021/10/28 05:53:27;;;;;;;19.55;11.45;;;;;;;;;;5087960;28;20051;-58
2021/10/28 05:55:53;;;;;;;22.08;12.20;;;;;;;;;;5091576;28;20119;-59
2021/10/28 05:58:19;;;;;;;19.42;11.32;;;;;;;;;;5085620;28;20501;-58
2021/10/28 06:00:46;;;;;;;23.17;12.82;;;;;;;;;;5088434;28;20044;-58
2021/10/28 06:03:13;;;;;;;17.73;10.70;;;;;;;;;;5085633;28;20082;-58
2021/10/28 06:05:39;;;;;;;19.70;11.10;;;;;;;;;;5085804;28;20094;-59
2021/10/28 06:08:06;;;;;;;20.23;10.63;;;;;;;;;;5087922;28;20123;-59
2021/10/28 06:10:32;;;;;;;23.40;11.13;;;;;;;;;;5089725;28;20115;-58
2021/10/28 06:13:02;;;;;;;22.90;11.73;;;;;;;;;;5091386;28;20101;-58
2021/10/28 06:15:30;;;;;;;19.50;10.10;;;;;;;;;;5090255;28;20063;-59
2021/10/28 06:17:59;;;;;;;24.17;12.15;;;;;;;;;;5088775;28;20064;-59
2021/10/28 06:20:26;;;;;;;20.77;10.95;;;;;;;;;;5089202;28;20127;-59
2021/10/28 06:22:53;;;;;;;20.58;10.45;;;;;;;;;;5087959;28;20048;-59
2021/10/28 06:25:19;;;;;;;20.25;10.85;;;;;;;;;;5090972;28;20063;-59
2021/10/28 06:27:46;;;;;;;17.02;10.02;;;;;;;;;;5087726;28;20048;-59
2021/10/28 06:30:13;;;;;;;18.05;10.40;;;;;;;;;;5084645;28;20044;-59
2021/10/28 06:32:43;;;;;;;19.00;10.25;;;;;;;;;;5085413;28;20455;-59
2021/10/28 06:35:10;;;;;;;18.83;10.40;;;;;;;;;;5088513;28;20165;-58
2021/10/28 06:37:36;;;;;;;18.83;10.13;;;;;;;;;;5087135;28;20401;-59
2021/10/28 06:40:03;;;;;;;17.77;9.73;;;;;;;;;;5087074;28;20624;-59
2021/10/28 06:42:29;;;;;;;20.27;10.10;;;;;;;;;;5085475;28;20083;-59
2021/10/28 06:44:55;;;;;;;19.55;9.70;;;;;;;;;;5083281;28;20048;-59
2021/10/28 06:47:22;;;;;;;19.13;10.10;;;;;;;;;;5086710;28;20076;-59
2021/10/28 06:49:48;;;;;;;22.75;9.40;;;;;;;;;;5088948;28;20162;-59
2021/10/28 06:52:14;;;;;;;18.25;9.25;;;;;;;;;;5086055;28;20529;-59
2021/10/28 06:54:42;;;;;;;13.63;7.65;;;;;;;;;;5086292;28;20068;-59
2021/10/28 07:02:41;;;;;;;17.20;8.68;;;;;;;;;;5086501;28;20066;-58
2021/10/28 07:05:08;;;;;;;18.02;8.70;;;;;;;;;;5077269;28;20083;-59
2021/10/28 07:07:35;;;;;;;21.35;9.35;;;;;;;;;;5089948;28;20076;-58
2021/10/28 07:10:15;;;;;;;18.00;10.02;;;;;;;;;;5087268;28;20097;-59
2021/10/28 07:13:07;;;;;;;20.80;10.35;;;;;;;;;;5086919;28;20090;-59
2021/10/28 07:15:36;;;;;;;17.23;9.43;;;;;;;;;;5087714;28;20102;-59
2021/10/28 07:29:53;;;;;;;15.15;8.73;;;;;;;;;;5084523;28;20109;-59
2021/10/28 08:15:42;;;;;;;17.90;9.85;;;;;;;;;;5083332;28;20153;-57
2021/10/28 08:18:29;;;;;;;17.52;9.30;;;;;;;;;;5084561;28;20456;-57
2021/10/28 08:29:21;;;;;;;15.55;8.52;;;;;;;;;;5076243;28;20047;-57
2021/10/28 08:31:51;;;;;;;16.40;9.02;;;;;;;;;;5086077;28;20513;-57
2021/10/28 08:34:22;;;;;;;18.38;8.90;;;;;;;;;;5083186;28;20044;-57
2021/10/28 08:36:51;;;;;;;12.32;7.38;;;;;;;;;;5086297;28;20040;-57
2021/10/28 08:39:21;;;;;;;17.60;10.35;;;;;;;;;;5081797;28;20160;-57
2021/10/28 08:41:47;;;;;;;14.45;7.93;;;;;;;;;;5081886;28;20395;-57
2021/10/28 08:44:21;;;;;;;15.52;8.98;;;;;;;;;;5085411;28;20048;-57
2021/10/28 08:46:52;;;;;;;20.33;10.80;;;;;;;;;;5084389;28;20569;-57
2021/10/28 08:49:28;;;;;;;18.80;9.85;;;;;;;;;;5087396;28;20037;-57
2021/10/28 09:25:03;;;;;;;14.93;9.15;;;;;;;;;;5029275;28;20061;-58
2021/10/28 09:27:46;;;;;;;13.20;7.57;;;;;;;;;;5016759;28;20092;-57
2021/10/28 09:30:29;;;;;;;14.75;8.40;;;;;;;;;;5075746;28;20083;-59
2021/10/28 09:33:06;;;;;;;13.02;8.40;;;;;;;;;;5076064;28;20047;-57
2021/10/28 09:44:43;;;;;;;13.77;7.70;;;;;;;;;;5068188;28;20491;-57
2021/10/28 09:47:32;;;;;;;11.25;7.25;;;;;;;;;;5068193;28;20084;-58
2021/10/28 09:50:09;;;;;;;16.00;8.77;;;;;;;;;;5068308;28;20466;-58
2021/10/28 09:52:38;;;;;;;14.05;9.02;;;;;;;;;;5068017;28;20183;-58
2021/10/28 09:58:25;;;;;;;15.20;8.30;;;;;;;;;;5007271;28;20097;-59
2021/10/28 10:00:52;;;;;;;18.70;9.50;;;;;;;;;;5010331;28;20117;-58
2021/10/28 10:03:23;;;;;;;15.63;9.43;;;;;;;;;;5009118;28;20077;-57
2021/10/28 10:06:00;;;;;;;14.43;8.27;;;;;;;;;;5010588;28;20513;-57
2021/10/28 10:08:27;;;;;;;14.88;8.88;;;;;;;;;;5009120;28;20041;-56
2021/10/28 10:10:54;;;;;;;16.90;9.80;;;;;;;;;;5009585;28;20108;-58
2021/10/28 10:13:24;;;;;;;15.80;9.18;;;;;;;;;;5013333;28;20467;-58
2021/10/28 10:15:52;;;;;;;17.20;9.95;;;;;;;;;;5028808;28;20077;-58
2021/10/28 10:18:20;;;;;;;20.27;9.45;;;;;;;;;;5028859;28;20053;-57
2021/10/28 10:20:50;;;;;;;12.20;8.27;;;;;;;;;;5023838;28;20464;-57
2021/10/28 12:01:28;;;;;;;16.98;8.93;;;;;;;;;;5073714;28;20503;-59
2021/10/28 12:23:56;;;;;;;19.42;10.68;;;;;;;;;;4990059;28;20058;-59
2021/10/28 12:47:29;;;;;;;15.77;9.75;;;;;;;;;;4990595;28;20054;-59
2021/10/28 12:55:11;;;;;;;16.80;10.57;;;;;;;;;;5010154;28;20080;-59
2021/10/28 13:34:56;;;;;;;13.48;9.60;;;;;;;;;;5028865;28;20073;-59
2021/10/28 13:58:06;;;;;;;12.55;8.65;;;;;;;;;;5081559;28;20048;-59
2021/10/28 14:18:00;;;;;;;;;;;;;;;;;;5077641;28;20049;-59
2021/10/28 14:38:37;;;;;;;13.57;8.40;;;;;;;;;;5079507;28;20058;-59
2021/10/28 15:03:26;;;;;;;18.05;10.27;;;;;;;;;;5079044;28;20496;-59
2021/10/28 15:28:06;;;;;;;18.17;11.13;;;;;;;;;;5078258;28;20510;-58
2021/10/28 15:30:58;;;;;;;23.10;10.40;;;;;;;;;;5088965;28;20105;-58
2021/10/28 15:54:11;;;;;;;;;;;;;;;;;;5078523;28;20450;-57
2021/10/28 16:23:57;;;;;;;47.45;22.73;;;;;;;;;;5077446;28;20404;-59
2021/10/28 16:26:23;;;;;;;52.17;23.45;;;;;;;;;;5077397;28;20064;-59
2021/10/28 16:28:49;;;;;;;47.20;22.45;;;;;;;;;;5074896;28;20040;-59
2021/10/28 16:31:16;;;;;;;46.78;21.40;;;;;;;;;;5089622;28;20411;-59
2021/10/28 16:33:44;;;;;;;47.97;21.05;;;;;;;;;;5086040;28;20530;-59
2021/10/28 16:36:10;;;;;;;41.13;20.67;;;;;;;;;;5079095;28;20056;-60
2021/10/28 16:38:37;;;;;;;57.13;22.17;;;;;;;;;;5077525;28;20120;-58
2021/10/28 16:41:03;;;;;;;47.80;24.70;;;;;;;;;;5077434;28;20082;-59
2021/10/28 16:43:29;;;;;;;55.95;25.88;;;;;;;;;;5073328;28;20570;-59
2021/10/28 16:45:55;;;;;;;62.42;27.95;;;;;;;;;;5076745;28;20098;-59
2021/10/28 16:48:22;;;;;;;69.82;29.48;;;;;;;;;;5072027;28;20534;-59
2021/10/28 16:50:48;;;;;;;88.68;36.00;;;;;;;;;;5071505;28;20492;-59
2021/10/28 16:53:14;;;;;;;98.00;41.47;;;;;;;;;;5071526;28;20094;-59
2021/10/28 16:55:41;;;;;;;122.72;47.55;;;;;;;;;;5074560;28;20074;-59
2021/10/28 16:58:09;;;;;;;106.45;44.53;;;;;;;;;;5074632;28;20052;-59
2021/10/28 17:00:35;;;;;;;138.73;58.45;;;;;;;;;;5077015;28;20045;-59
2021/10/28 17:03:03;;;;;;;132.15;55.53;;;;;;;;;;5077120;28;20075;-59
2021/10/28 17:05:29;;;;;;;136.35;57.25;;;;;;;;;;5077136;28;20412;-59
2021/10/28 17:07:55;;;;;;;136.50;56.63;;;;;;;;;;5074247;28;20119;-59
2021/10/28 17:10:22;;;;;;;126.57;54.67;;;;;;;;;;5089239;28;20067;-58
2021/10/28 17:12:48;;;;;;;139.70;54.22;;;;;;;;;;5080321;28;20051;-59
2021/10/28 17:15:15;;;;;;;119.82;53.22;;;;;;;;;;5081334;28;20045;-59
2021/10/28 17:17:41;;;;;;;126.53;51.83;;;;;;;;;;5081284;28;20111;-59
2021/10/28 17:20:08;;;;;;;124.13;50.67;;;;;;;;;;5080940;28;20135;-59
2021/10/28 17:22:35;;;;;;;96.60;44.15;;;;;;;;;;5079189;28;20039;-57
2021/10/28 17:25:04;;;;;;;100.78;45.70;;;;;;;;;;5086121;28;20121;-59
2021/10/28 17:27:30;;;;;;;97.10;43.03;;;;;;;;;;5090648;28;20193;-59
2021/10/28 17:29:57;;;;;;;104.63;46.25;;;;;;;;;;5084602;28;20041;-59
2021/10/28 17:32:25;;;;;;;104.97;46.85;;;;;;;;;;5076533;28;20119;-60
2021/10/28 17:34:51;;;;;;;122.63;47.50;;;;;;;;;;5086464;28;20420;-60
2021/10/28 17:37:17;;;;;;;110.22;50.17;;;;;;;;;;5090736;28;20044;-59
2021/10/28 17:39:44;;;;;;;117.07;52.38;;;;;;;;;;5088696;28;20055;-59
2021/10/28 17:42:10;;;;;;;115.13;50.50;;;;;;;;;;5085823;28;20044;-59
2021/10/28 17:44:39;;;;;;;110.22;49.22;;;;;;;;;;5085939;28;20094;-59
2021/10/28 17:47:06;;;;;;;115.05;51.35;;;;;;;;;;5079987;28;20071;-59
2021/10/28 17:49:32;;;;;;;116.18;51.70;;;;;;;;;;5082860;28;20055;-58
2021/10/28 17:51:59;;;;;;;119.45;48.85;;;;;;;;;;5080943;28;20090;-58
2021/10/28 17:54:25;;;;;;;112.65;47.78;;;;;;;;;;5081030;28;20103;-58
2021/10/28 17:56:51;;;;;;;106.53;46.78;;;;;;;;;;5080408;28;20099;-57
2021/10/28 17:59:18;;;;;;;92.95;43.92;;;;;;;;;;5088108;28;20529;-58
2021/10/28 18:01:45;;;;;;;104.43;45.20;;;;;;;;;;5088023;28;20064;-57
2021/10/28 18:04:11;;;;;;;102.28;43.20;;;;;;;;;;5087264;28;20052;-58
2021/10/28 18:06:37;;;;;;;97.38;42.67;;;;;;;;;;5087857;28;20051;-58
2021/10/28 18:09:05;;;;;;;86.88;39.42;;;;;;;;;;5089450;28;20103;-58
2021/10/28 18:11:35;;;;;;;94.50;39.80;;;;;;;;;;5088882;28;20044;-58
2021/10/28 18:14:02;;;;;;;87.70;40.70;;;;;;;;;;5086246;28;20055;-58
2021/10/28 18:16:29;;;;;;;85.63;42.10;;;;;;;;;;5089258;28;20060;-60
2021/10/28 18:18:59;;;;;;;82.90;40.08;;;;;;;;;;5091287;28;20044;-58
2021/10/28 18:21:26;;;;;;;80.43;37.85;;;;;;;;;;5088891;28;20058;-59
2021/10/28 18:23:54;;;;;;;79.13;37.75;;;;;;;;;;5087027;28;20079;-58
2021/10/28 18:26:23;;;;;;;84.95;34.75;;;;;;;;;;5086554;28;20124;-57
2021/10/28 18:28:50;;;;;;;77.43;36.05;;;;;;;;;;5079501;28;20055;-57
2021/10/28 18:31:17;;;;;;;85.78;38.95;;;;;;;;;;5088822;28;20132;-57
2021/10/28 18:33:43;;;;;;;74.22;35.80;;;;;;;;;;5089858;28;20044;-57
2021/10/28 18:36:13;;;;;;;79.28;35.70;;;;;;;;;;5086942;28;20091;-58
2021/10/28 18:38:46;;;;;;;85.85;36.15;;;;;;;;;;5083348;28;20502;-58
2021/10/28 18:41:13;;;;;;;82.97;38.00;;;;;;;;;;5077119;28;20459;-57
2021/10/28 18:43:40;;;;;;;79.97;36.15;;;;;;;;;;5074820;28;20055;-58
2021/10/28 18:46:06;;;;;;;82.78;37.22;;;;;;;;;;5076092;28;20177;-58
2021/10/28 18:48:33;;;;;;;84.15;37.72;;;;;;;;;;5076511;28;20048;-57
2021/10/28 18:50:59;;;;;;;82.55;37.20;;;;;;;;;;5082438;28;20040;-57
2021/10/28 18:53:26;;;;;;;91.40;35.70;;;;;;;;;;5077898;28;20464;-57
2021/10/28 18:55:54;;;;;;;85.80;35.22;;;;;;;;;;5083640;28;20063;-58
2021/10/28 18:58:20;;;;;;;82.53;34.35;;;;;;;;;;5087451;28;20058;-57
2021/10/28 19:00:48;;;;;;;78.85;35.70;;;;;;;;;;5086712;28;20079;-58
2021/10/28 19:03:15;;;;;;;84.45;37.35;;;;;;;;;;5083688;28;20048;-59
2021/10/28 19:05:42;;;;;;;81.68;35.38;;;;;;;;;;5083194;28;20044;-59
2021/10/28 19:08:08;;;;;;;97.20;37.53;;;;;;;;;;5083993;28;20503;-57
2021/10/28 19:10:35;;;;;;;90.10;38.30;;;;;;;;;;5087754;28;20045;-58
2021/10/28 19:13:01;;;;;;;92.85;38.88;;;;;;;;;;5086659;28;20625;-58
2021/10/28 19:15:27;;;;;;;99.28;41.75;;;;;;;;;;5084960;28;20526;-57
2021/10/28 19:17:54;;;;;;;88.63;40.10;;;;;;;;;;5087417;28;20040;-58
2021/10/28 19:20:20;;;;;;;84.90;38.38;;;;;;;;;;5084724;28;20156;-57
2021/10/28 19:22:47;;;;;;;98.38;42.83;;;;;;;;;;5084075;28;20111;-57
2021/10/28 19:25:13;;;;;;;92.68;43.08;;;;;;;;;;5081562;28;20040;-59
2021/10/28 19:27:40;;;;;;;92.93;41.13;;;;;;;;;;5088968;28;20064;-57
2021/10/28 19:30:24;;;;;;;96.47;40.80;;;;;;;;;;5083874;28;20047;-58
2021/10/28 19:32:51;;;;;;;88.35;39.03;;;;;;;;;;5083845;28;20506;-58
2021/10/28 19:35:20;;;;;;;105.47;40.33;;;;;;;;;;5083858;28;20060;-57
2021/10/28 19:37:55;;;;;;;106.82;42.60;;;;;;;;;;5081335;28;20116;-57
2021/10/28 19:48:18;;;;;;;128.60;46.67;;;;;;;;;;5086217;28;20044;-59
2021/10/28 19:50:48;;;;;;;120.72;46.05;;;;;;;;;;5083476;28;20123;-59
2021/10/28 19:53:14;;;;;;;116.75;46.30;;;;;;;;;;5086648;28;20523;-58
2021/10/28 19:55:42;;;;;;;126.25;48.90;;;;;;;;;;5084107;28;20352;-59
2021/10/28 19:58:12;;;;;;;149.27;53.25;;;;;;;;;;5073375;28;20086;-58
2021/10/28 20:00:48;;;;;;;134.77;51.78;;;;;;;;;;5077012;28;20065;-58
2021/10/28 20:13:01;;;;;;;162.02;57.30;;;;;;;;;;5086372;28;20055;-59
2021/10/28 20:21:30;;;;;;;131.75;52.35;;;;;;;;;;5086596;28;20117;-59
2021/10/28 20:23:56;;;;;;;147.18;53.63;;;;;;;;;;5082420;28;20403;-59
2021/10/28 20:26:23;;;;;;;138.48;52.90;;;;;;;;;;5084813;28;20484;-59
2021/10/28 20:28:51;;;;;;;129.82;50.20;;;;;;;;;;5086320;28;20079;-60
2021/10/28 20:31:19;;;;;;;126.53;47.72;;;;;;;;;;5086976;28;20051;-59
2021/10/28 20:34:11;;;;;;;113.38;43.00;;;;;;;;;;5087512;28;20048;-59
2021/10/28 20:39:20;;;;;;;110.38;43.28;;;;;;;;;;5077230;28;20088;-59
2021/10/28 20:41:47;;;;;;;127.45;43.90;;;;;;;;;;5081395;28;20087;-59
2021/10/28 20:44:13;;;;;;;112.50;41.67;;;;;;;;;;5084712;28;20483;-59
2021/10/28 20:46:39;;;;;;;106.97;44.15;;;;;;;;;;5083067;28;20526;-59
2021/10/28 20:49:07;;;;;;;101.13;43.13;;;;;;;;;;5084372;28;20083;-59
2021/10/28 20:51:33;;;;;;;96.65;39.38;;;;;;;;;;5083850;28;20123;-59
2021/10/28 20:54:01;;;;;;;105.35;38.08;;;;;;;;;;5081503;28;20082;-59
2021/10/28 20:56:28;;;;;;;103.38;40.55;;;;;;;;;;5082787;28;20079;-59
2021/10/28 20:58:55;;;;;;;89.15;37.90;;;;;;;;;;5086007;28;20048;-59
2021/10/28 21:01:23;;;;;;;94.70;39.40;;;;;;;;;;5083163;28;20060;-59
2021/10/28 21:03:50;;;;;;;93.65;37.92;;;;;;;;;;5085333;28;20064;-59
2021/10/28 21:06:17;;;;;;;96.13;39.45;;;;;;;;;;5077386;28;20593;-58
2021/10/28 21:08:43;;;;;;;95.80;37.03;;;;;;;;;;5076781;28;20112;-58
2021/10/28 21:11:10;;;;;;;89.30;37.50;;;;;;;;;;5074060;28;20124;-59
2021/10/28 21:13:36;;;;;;;84.93;36.90;;;;;;;;;;5072773;28;20495;-59
2021/10/28 21:16:02;;;;;;;81.57;38.25;;;;;;;;;;5088852;28;20040;-58
2021/10/28 21:18:29;;;;;;;95.10;36.53;;;;;;;;;;5081686;28;20071;-59
2021/10/28 21:20:56;;;;;;;81.68;33.67;;;;;;;;;;5084379;28;20056;-59
2021/10/28 21:23:22;;;;;;;86.50;33.60;;;;;;;;;;5084751;28;20480;-59
2021/10/28 21:25:48;;;;;;;74.25;32.25;;;;;;;;;;5085372;28;20052;-59
2021/10/28 21:28:15;;;;;;;86.00;34.03;;;;;;;;;;5081533;28;20118;-58
2021/10/28 21:30:43;;;;;;;71.60;30.55;;;;;;;;;;5083923;28;20044;-59
2021/10/28 21:33:10;;;;;;;74.28;31.92;;;;;;;;;;5081279;28;20056;-59
2021/10/28 21:35:36;;;;;;;79.72;31.42;;;;;;;;;;5085171;28;20051;-59
2021/10/28 21:38:03;;;;;;;89.43;33.00;;;;;;;;;;5086172;28;20051;-58
2021/10/28 21:40:29;;;;;;;84.22;33.22;;;;;;;;;;5073317;28;20522;-58
2021/10/28 21:42:57;;;;;;;73.70;32.60;;;;;;;;;;5087583;28;20048;-58
2021/10/28 21:45:24;;;;;;;73.55;33.30;;;;;;;;;;5072184;28;20052;-59
2021/10/28 21:47:51;;;;;;;78.78;32.60;;;;;;;;;;5076621;28;20072;-59
2021/10/28 21:50:18;;;;;;;80.53;35.85;;;;;;;;;;5076045;28;20048;-59
2021/10/28 21:52:50;;;;;;;85.43;35.28;;;;;;;;;;5073564;28;20553;-59
2021/10/28 22:27:15;;;;;;;104.57;36.30;;;;;;;;;;5079171;28;20083;-59
2021/10/28 22:29:42;;;;;;;77.70;33.30;;;;;;;;;;5079266;28;20060;-59
2021/10/28 22:32:09;;;;;;;96.90;33.72;;;;;;;;;;5079076;28;20071;-59
2021/10/28 22:34:36;;;;;;;87.47;33.58;;;;;;;;;;5075816;28;20040;-58
2021/10/28 22:37:20;;;;;;;72.93;31.08;;;;;;;;;;5077139;28;20067;-59
2021/10/28 22:42:17;;;;;;;76.53;31.48;;;;;;;;;;5078599;28;20059;-59
2021/10/28 22:44:43;;;;;;;83.40;32.72;;;;;;;;;;5079100;28;20123;-58
2021/10/28 22:47:10;;;;;;;70.57;30.92;;;;;;;;;;5075133;28;20131;-59
2021/10/28 22:49:36;;;;;;;80.38;33.15;;;;;;;;;;5090641;28;20044;-59
2021/10/28 22:55:05;;;;;;;71.47;30.17;;;;;;;;;;5068649;28;20057;-59
2021/10/28 22:57:36;;;;;;;77.57;31.67;;;;;;;;;;5088643;28;20048;-59
2021/10/28 23:00:05;;;;;;;91.97;33.10;;;;;;;;;;5081949;28;20119;-58
2021/10/28 23:05:36;;;;;;;80.10;30.65;;;;;;;;;;5082371;28;20143;-59
2021/10/28 23:21:40;;;;;;;81.72;31.73;;;;;;;;;;5077804;28;20084;-59
2021/10/28 23:24:06;;;;;;;80.53;32.20;;;;;;;;;;5078163;28;20140;-59
2021/10/28 23:26:32;;;;;;;75.45;32.10;;;;;;;;;;5077949;28;20134;-59
2021/10/28 23:28:59;;;;;;;83.45;32.65;;;;;;;;;;5078183;28;20083;-59
2021/10/28 23:31:25;;;;;;;77.20;29.52;;;;;;;;;;5073813;28;20040;-58
2021/10/28 23:33:51;;;;;;;83.80;32.15;;;;;;;;;;5077633;28;20090;-59
2021/10/28 23:36:18;;;;;;;75.65;32.00;;;;;;;;;;5078140;28;20470;-59
2021/10/28 23:38:44;;;;;;;68.03;31.98;;;;;;;;;;5081101;28;20044;-59
2021/10/28 23:41:10;;;;;;;82.25;32.20;;;;;;;;;;5086238;28;20407;-59
2021/10/28 23:43:37;;;;;;;80.00;33.05;;;;;;;;;;5089764;28;20045;-59
2021/10/28 23:46:04;;;;;;;91.05;33.13;;;;;;;;;;5075937;28;20557;-59
2021/10/28 23:48:30;;;;;;;84.05;30.90;;;;;;;;;;5078145;28;20056;-59
2021/10/28 23:50:57;;;;;;;86.68;30.17;;;;;;;;;;5077582;28;20113;-58
2021/10/28 23:53:23;;;;;;;82.25;34.33;;;;;;;;;;5077537;28;20071;-58
2021/10/28 23:55:49;;;;;;;81.03;30.85;;;;;;;;;;5075819;28;20052;-59
2021/10/28 23:58:16;;;;;;;92.88;34.53;;;;;;;;;;5074483;28;20461;-59
